LAX weather

Los Angeles International Airport
Los Angeles, California, United States

Public forecast

Using degrees Fahrenheit for public forecast. Weather courtesy of forecast.io.

METAR (pilot weather report)

Retrieved 2017/01/20 04:53 UTC (46 minutes ago):

KLAX 200453Z 24015KT 9SM -RA SCT038 BKN050 OVC070 13/09 A2990

TAF (pilot weather forecast)

Forecast is more than 12 hours old.

Retrieved 2017/01/19 00:39 UTC (1 day ago):

TAF KLAX 192332Z 2000/2106 25015G21KT P6SM SCT025 SCT050 FM200400 25013KT P6SM BKN015 BKN150 FM201000 27010KT P6SM VCSH BKN020 BKN090 FM201400 14012KT 5SM -RA BR BKN025 OVC040 FM201800 15012G20KT 2SM RA BR BKN007 OVC015 FM202200 23020G30KT 4SM -RA BR BKN015 OVC025